Time;durP1;ratioP1;P1;durP2;ratioP2;P2;SDS_P1;SDS_P2;PMS_P1;PMS_P2;Temp;Humidity;BMP_temperature;BMP_pressure;BME280_temperature;BME280_humidity;BME280_pressure;Samples;Min_cycle;Max_cycle;Signal;HPM_P1;HPM_P2
2022/04/21 00:00:19;;;;;;;9.03;3.73;;;8.20;99.90;;;;;;5032475;28;20048;-81
2022/04/21 00:02:46;;;;;;;9.70;4.63;;;8.20;99.90;;;;;;5047835;28;20140;-82
2022/04/21 00:05:13;;;;;;;7.53;3.60;;;8.20;99.90;;;;;;5051660;28;20056;-81
2022/04/21 00:07:39;;;;;;;7.65;3.90;;;8.20;99.90;;;;;;5012819;28;20490;-80
2022/04/21 00:10:05;;;;;;;10.05;4.22;;;8.10;99.90;;;;;;5050490;28;20092;-81
2022/04/21 00:12:33;;;;;;;8.20;3.90;;;8.10;99.90;;;;;;5026798;28;20072;-80
2022/04/21 00:14:59;;;;;;;7.10;4.32;;;8.10;99.90;;;;;;5011086;28;20510;-81
2022/04/21 00:17:25;;;;;;;8.30;4.27;;;8.10;99.90;;;;;;5032033;28;20068;-83
2022/04/21 00:19:50;;;;;;;7.63;4.10;;;8.10;99.90;;;;;;5049318;28;20398;-81
2022/04/21 00:25:00;;;;;;;8.73;4.63;;;8.00;99.90;;;;;;5025493;28;20045;-81
2022/04/21 00:27:26;;;;;;;15.77;4.30;;;8.00;99.90;;;;;;5025008;28;20593;-82
2022/04/21 00:29:52;;;;;;;9.45;4.40;;;8.00;99.90;;;;;;5027389;28;20110;-80
2022/04/21 00:32:17;;;;;;;8.93;4.40;;;8.00;99.90;;;;;;5030561;28;20049;-80
2022/04/21 00:34:43;;;;;;;7.73;4.53;;;8.00;99.90;;;;;;5031261;28;20395;-80
2022/04/21 00:37:10;;;;;;;6.17;3.90;;;8.00;99.90;;;;;;5045227;28;20033;-80
2022/04/21 00:39:35;;;;;;;7.40;4.68;;;8.00;99.90;;;;;;5029983;28;20041;-79
2022/04/21 00:42:02;;;;;;;6.57;3.90;;;7.90;99.90;;;;;;5016772;28;20094;-81
2022/04/21 00:44:29;;;;;;;8.77;3.95;;;7.90;99.90;;;;;;5028659;28;20452;-79
2022/04/21 00:46:56;;;;;;;8.88;3.92;;;7.90;99.90;;;;;;5026286;28;20045;-79
2022/04/21 00:49:22;;;;;;;9.43;4.80;;;7.90;99.90;;;;;;5010937;28;20417;-80
2022/04/21 00:51:51;;;;;;;;;;;7.80;99.90;;;;;;5047158;28;20080;-81
2022/04/21 00:54:17;;;;;;;11.23;4.57;;;7.80;99.90;;;;;;5042890;28;19936;-80
2022/04/21 00:56:44;;;;;;;7.47;4.55;;;7.80;99.90;;;;;;5041576;28;20049;-81
2022/04/21 00:59:10;;;;;;;;;;;7.80;99.90;;;;;;5015448;28;20040;-80
2022/04/21 01:04:22;;;;;;;8.85;5.20;;;7.70;99.90;;;;;;5027675;28;20052;-81
2022/04/21 01:06:47;;;;;;;9.90;4.90;;;7.70;99.90;;;;;;5012121;28;20037;-80
2022/04/21 01:09:13;;;;;;;11.83;6.17;;;7.70;99.90;;;;;;5048094;28;20662;-79
2022/04/21 01:11:39;;;;;;;9.70;4.67;;;7.70;99.90;;;;;;5026335;28;20445;-79
2022/04/21 01:14:07;;;;;;;9.23;4.87;;;7.70;99.90;;;;;;5047705;28;20414;-80
2022/04/21 01:19:01;;;;;;;10.90;5.18;;;7.70;99.90;;;;;;5035891;28;20052;-70
2022/04/21 01:21:26;;;;;;;11.00;5.25;;;7.70;99.90;;;;;;5033548;28;20049;-70
2022/04/21 01:23:52;;;;;;;10.87;5.87;;;7.70;99.90;;;;;;5035415;28;20041;-71
2022/04/21 01:26:18;;;;;;;11.13;5.73;;;7.70;99.90;;;;;;5014949;28;20056;-70
2022/04/21 01:28:45;;;;;;;11.10;5.27;;;7.60;99.90;;;;;;4989145;28;20033;-71
2022/04/21 01:31:11;;;;;;;10.55;5.07;;;7.60;99.90;;;;;;5027024;28;20357;-71
2022/04/21 01:33:37;;;;;;;11.15;5.35;;;7.60;99.90;;;;;;5025442;28;20038;-70
2022/04/21 01:36:04;;;;;;;12.73;6.47;;;7.60;99.90;;;;;;5017247;28;20049;-71
2022/04/21 01:41:14;;;;;;;10.68;6.05;;;7.60;99.90;;;;;;5015845;28;20060;-70
2022/04/21 01:43:43;;;;;;;9.57;5.73;;;7.60;99.90;;;;;;5028805;28;20041;-71
2022/04/21 01:46:10;;;;;;;12.45;5.22;;;7.60;99.90;;;;;;5000826;28;20454;-70
2022/04/21 01:48:35;;;;;;;;;;;7.60;99.90;;;;;;5020812;28;20441;-70
2022/04/21 01:51:01;;;;;;;10.75;5.75;;;7.50;99.90;;;;;;5034422;28;19982;-70
2022/04/21 01:53:28;;;;;;;11.15;5.53;;;7.50;99.90;;;;;;5027410;28;20065;-71
2022/04/21 01:55:55;;;;;;;12.68;6.40;;;7.50;99.90;;;;;;5021806;28;20044;-70
2022/04/21 01:58:21;;;;;;;11.38;6.13;;;7.50;99.90;;;;;;5008145;28;20127;-70
2022/04/21 02:00:46;;;;;;;11.00;5.70;;;7.40;99.90;;;;;;5020631;28;20095;-70
2022/04/21 02:03:12;;;;;;;11.67;6.33;;;7.40;99.90;;;;;;5024877;28;20079;-70
2022/04/21 02:05:38;;;;;;;10.52;5.88;;;7.40;99.90;;;;;;5023395;28;20061;-70
2022/04/21 02:08:04;;;;;;;8.43;5.67;;;7.40;99.90;;;;;;5027997;28;20061;-70
2022/04/21 02:10:30;;;;;;;14.00;6.10;;;7.40;99.90;;;;;;5025161;28;20406;-70
2022/04/21 02:12:56;;;;;;;12.20;7.35;;;7.40;99.90;;;;;;5013054;28;20052;-70
2022/04/21 02:15:23;;;;;;;10.73;6.35;;;7.40;99.90;;;;;;4989529;28;20030;-70
2022/04/21 02:17:49;;;;;;;11.15;5.82;;;7.30;99.90;;;;;;5009453;28;20044;-70
2022/04/21 02:20:15;;;;;;;13.60;7.43;;;7.30;99.90;;;;;;5028065;28;20041;-70
2022/04/21 02:22:44;;;;;;;12.55;6.60;;;7.30;99.90;;;;;;5019393;28;21268;-69
2022/04/21 02:25:11;;;;;;;12.48;7.30;;;7.30;99.90;;;;;;5020365;28;20669;-71
2022/04/21 02:27:39;;;;;;;14.20;6.72;;;7.30;99.90;;;;;;5035696;28;20042;-70
2022/04/21 02:30:06;;;;;;;15.73;7.50;;;7.30;99.90;;;;;;5027027;28;20121;-71
2022/04/21 02:32:32;;;;;;;14.43;7.90;;;7.30;99.90;;;;;;5027722;28;20037;-70
2022/04/21 02:34:58;;;;;;;13.00;7.55;;;7.30;99.90;;;;;;5016977;28;20486;-70
2022/04/21 02:37:23;;;;;;;13.13;7.00;;;7.30;99.90;;;;;;5008403;28;20068;-69
2022/04/21 02:39:49;;;;;;;17.07;8.17;;;7.30;99.90;;;;;;5027391;28;20108;-69
2022/04/21 02:42:15;;;;;;;15.07;7.53;;;7.30;99.90;;;;;;5026184;28;20145;-71
2022/04/21 02:44:41;;;;;;;15.15;7.53;;;7.30;99.90;;;;;;5026338;28;20045;-70
2022/04/21 02:47:08;;;;;;;14.15;7.63;;;7.20;99.90;;;;;;5000151;28;20054;-71
2022/04/21 02:49:37;;;;;;;15.52;8.05;;;7.20;99.90;;;;;;5008214;28;20454;-70
2022/04/21 02:52:07;;;;;;;16.75;8.20;;;7.20;99.90;;;;;;4992259;28;20230;-70
2022/04/21 02:57:20;;;;;;;15.77;9.20;;;7.20;99.90;;;;;;5005460;28;20050;-70
2022/04/21 02:59:47;;;;;;;15.27;8.38;;;7.20;99.90;;;;;;5011960;28;20128;-69
2022/04/21 03:02:13;;;;;;;16.77;8.18;;;7.20;99.90;;;;;;5000412;28;20042;-71
2022/04/21 03:04:38;;;;;;;16.33;9.23;;;7.20;99.90;;;;;;5026573;28;20051;-69
2022/04/21 03:07:04;;;;;;;14.70;8.07;;;7.20;99.90;;;;;;5023394;28;20049;-69
2022/04/21 03:09:32;;;;;;;15.10;8.13;;;7.20;99.90;;;;;;5029258;28;20526;-69
2022/04/21 03:12:04;;;;;;;15.13;8.38;;;7.20;99.90;;;;;;5009886;28;20056;-70
2022/04/21 03:14:30;;;;;;;15.98;8.30;;;7.20;99.90;;;;;;5019199;28;20059;-69
2022/04/21 03:16:59;;;;;;;14.70;8.55;;;7.20;99.90;;;;;;4990534;28;20041;-70
2022/04/21 03:19:25;;;;;;;15.70;8.82;;;7.20;99.90;;;;;;5026301;28;20486;-71
2022/04/21 03:24:35;;;;;;;16.38;9.02;;;7.20;99.90;;;;;;5023845;28;20646;-70
2022/04/21 03:27:02;;;;;;;15.23;9.33;;;7.20;99.90;;;;;;5015242;28;20183;-69
2022/04/21 03:29:28;;;;;;;17.08;8.90;;;7.20;99.90;;;;;;5014874;28;20490;-70
2022/04/21 03:31:54;;;;;;;20.23;9.83;;;7.20;99.90;;;;;;5022634;28;20074;-70
2022/04/21 03:34:20;;;;;;;14.33;8.57;;;7.20;99.90;;;;;;5016859;28;20389;-69
2022/04/21 03:36:47;;;;;;;18.13;8.32;;;7.20;99.90;;;;;;5027619;28;20038;-70
2022/04/21 03:39:14;;;;;;;16.25;8.35;;;7.30;99.90;;;;;;5013439;28;20163;-69
2022/04/21 03:41:40;;;;;;;16.33;8.77;;;7.30;99.90;;;;;;5029358;28;20040;-70
2022/04/21 03:44:06;;;;;;;17.00;8.30;;;7.30;99.90;;;;;;5022967;28;20045;-69
2022/04/21 03:46:31;;;;;;;16.57;8.73;;;7.30;99.90;;;;;;5016084;28;20408;-68
2022/04/21 03:48:58;;;;;;;15.80;9.03;;;7.20;99.90;;;;;;5025060;28;20033;-69
2022/04/21 03:51:25;;;;;;;17.10;9.38;;;7.20;99.90;;;;;;5015885;28;20293;-69
2022/04/21 03:53:51;;;;;;;16.05;9.00;;;7.20;99.90;;;;;;5002818;28;20593;-69
2022/04/21 03:56:17;;;;;;;14.38;7.60;;;7.20;99.90;;;;;;5025116;28;20131;-71
2022/04/21 03:58:43;;;;;;;14.27;8.07;;;7.20;99.90;;;;;;5024488;28;20309;-70
2022/04/21 04:01:08;;;;;;;15.27;8.83;;;7.20;99.90;;;;;;5013185;28;20147;-69
2022/04/21 04:03:34;;;;;;;13.73;7.47;;;7.20;99.90;;;;;;5007921;28;20478;-69
2022/04/21 04:05:59;;;;;;;15.80;7.50;;;7.20;99.90;;;;;;5022583;28;20248;-71
2022/04/21 04:11:10;;;;;;;14.73;8.55;;;7.20;99.90;;;;;;5002224;28;20200;-69
2022/04/21 04:13:36;;;;;;;23.60;9.00;;;7.10;99.90;;;;;;5009452;28;20410;-69
2022/04/21 04:16:02;;;;;;;16.50;9.00;;;7.10;99.90;;;;;;5016912;28;20905;-69
2022/04/21 04:18:29;;;;;;;16.60;8.50;;;7.10;99.90;;;;;;5030074;28;20296;-69
2022/04/21 04:20:55;;;;;;;16.65;8.65;;;7.10;99.90;;;;;;5023252;28;20057;-69
2022/04/21 04:23:22;;;;;;;15.20;7.93;;;7.10;99.90;;;;;;5017722;28;20117;-71
2022/04/21 04:25:48;;;;;;;13.90;7.57;;;7.10;99.90;;;;;;5005536;28;20084;-69
2022/04/21 04:28:14;;;;;;;17.33;7.80;;;7.10;99.90;;;;;;5020550;28;20040;-69
2022/04/21 04:30:40;;;;;;;16.53;8.07;;;7.10;99.90;;;;;;5020039;28;20049;-69
2022/04/21 04:33:07;;;;;;;12.55;7.68;;;7.10;99.90;;;;;;5018408;28;20330;-70
2022/04/21 04:35:32;;;;;;;20.13;7.28;;;7.10;99.90;;;;;;4998196;28;20454;-69
2022/04/21 04:37:59;;;;;;;14.10;7.73;;;7.10;99.90;;;;;;5021817;28;20045;-71
2022/04/21 04:40:28;;;;;;;13.30;7.25;;;7.10;99.90;;;;;;5020483;28;20038;-70
2022/04/21 04:42:54;;;;;;;11.65;6.78;;;7.10;99.90;;;;;;5010906;28;20596;-70
2022/04/21 04:48:15;;;;;;;12.70;6.57;;;7.20;99.90;;;;;;4984516;28;20125;-69
2022/04/21 04:50:40;;;;;;;10.63;6.07;;;7.20;99.90;;;;;;5019345;28;20060;-69
2022/04/21 04:53:06;;;;;;;11.93;6.63;;;7.20;99.90;;;;;;5024703;28;20048;-70
2022/04/21 04:55:31;;;;;;;11.07;6.43;;;7.20;99.90;;;;;;4995046;28;20454;-70
2022/04/21 04:57:57;;;;;;;12.87;6.80;;;7.30;99.90;;;;;;5020482;28;20045;-70
2022/04/21 05:00:24;;;;;;;13.53;6.30;;;7.30;99.90;;;;;;5017272;28;20122;-70
2022/04/21 05:02:50;;;;;;;15.27;7.13;;;7.30;99.90;;;;;;5020979;28;20296;-71
2022/04/21 05:05:15;;;;;;;14.20;6.93;;;7.40;99.90;;;;;;5022011;28;20688;-70
2022/04/21 05:07:41;;;;;;;12.90;6.13;;;7.40;99.90;;;;;;5008103;28;20174;-71
2022/04/21 05:10:08;;;;;;;12.97;6.33;;;7.40;99.90;;;;;;5017792;28;20161;-70
2022/04/21 05:12:34;;;;;;;12.88;7.03;;;7.50;99.90;;;;;;5025923;28;20046;-70
2022/04/21 05:15:00;;;;;;;12.47;6.17;;;7.40;99.90;;;;;;5021163;28;20022;-71
2022/04/21 05:17:26;;;;;;;12.70;6.17;;;7.50;99.90;;;;;;5006456;28;20136;-70
2022/04/21 05:19:52;;;;;;;14.13;5.80;;;7.40;99.90;;;;;;5011294;28;20449;-71
2022/04/21 05:22:22;;;;;;;14.80;6.63;;;7.50;99.90;;;;;;5028883;28;20585;-70
2022/04/21 05:24:51;;;;;;;10.70;6.28;;;7.50;99.90;;;;;;4995701;28;20052;-70
2022/04/21 05:27:17;;;;;;;10.35;6.18;;;7.50;99.90;;;;;;5003189;28;20098;-69
2022/04/21 05:32:35;;;;;;;10.15;5.78;;;7.50;99.90;;;;;;5008494;28;20045;-69
2022/04/21 05:35:02;;;;;;;11.90;5.65;;;7.60;99.90;;;;;;5026918;28;20424;-70
2022/04/21 05:37:28;;;;;;;12.95;6.10;;;7.60;99.90;;;;;;5028170;28;20069;-69
2022/04/21 05:39:54;;;;;;;11.38;5.53;;;7.60;99.90;;;;;;4998879;28;20080;-70
2022/04/21 05:42:24;;;;;;;9.40;5.93;;;7.70;99.90;;;;;;5026446;28;20358;-70
2022/04/21 05:44:54;;;;;;;10.38;5.35;;;7.70;99.90;;;;;;5013359;28;20049;-70
2022/04/21 05:47:23;;;;;;;8.85;5.10;;;7.80;99.90;;;;;;5023479;28;20044;-73
2022/04/21 05:49:49;;;;;;;13.68;6.50;;;7.80;99.90;;;;;;5024816;28;20061;-71
2022/04/21 05:52:16;;;;;;;11.90;6.17;;;7.80;99.90;;;;;;5032416;28;20056;-71
2022/04/21 05:54:42;;;;;;;14.05;6.00;;;7.90;99.90;;;;;;5029834;28;20253;-71
2022/04/21 05:57:08;;;;;;;10.13;6.37;;;7.90;99.90;;;;;;5027092;28;20402;-71
2022/04/21 05:59:34;;;;;;;9.73;4.85;;;8.00;99.90;;;;;;5021424;28;20294;-68
2022/04/21 06:02:00;;;;;;;15.65;5.93;;;8.00;99.90;;;;;;4995035;28;20264;-71
2022/04/21 06:04:25;;;;;;;10.40;5.70;;;8.10;99.90;;;;;;5015605;28;20261;-68
2022/04/21 06:06:51;;;;;;;8.97;5.20;;;8.20;99.90;;;;;;5012484;28;20483;-70
2022/04/21 06:09:17;;;;;;;10.83;5.50;;;8.20;99.90;;;;;;5008583;28;20033;-71
2022/04/21 06:11:46;;;;;;;11.07;5.67;;;8.30;99.90;;;;;;5014237;28;20052;-72
2022/04/21 06:14:12;;;;;;;12.90;6.10;;;8.30;99.90;;;;;;4988776;28;20045;-72
2022/04/21 06:16:37;;;;;;;7.53;4.83;;;8.40;99.90;;;;;;5018895;28;20044;-70
2022/04/21 06:19:03;;;;;;;11.77;6.03;;;8.50;99.90;;;;;;5001693;28;20045;-69
2022/04/21 06:21:29;;;;;;;14.03;6.30;;;8.50;99.90;;;;;;5028534;28;20566;-70
2022/04/21 06:23:54;;;;;;;10.80;5.77;;;8.60;99.90;;;;;;5010161;28;20191;-70
2022/04/21 06:26:25;;;;;;;10.40;5.23;;;8.70;99.90;;;;;;5025250;28;20083;-69
2022/04/21 06:28:51;;;;;;;10.57;5.53;;;8.70;99.90;;;;;;5027776;28;20033;-69
2022/04/21 06:31:17;;;;;;;12.98;6.00;;;8.80;99.90;;;;;;5004644;28;20083;-69
2022/04/21 06:33:43;;;;;;;13.27;6.53;;;8.90;99.90;;;;;;5010890;28;20155;-70
2022/04/21 06:36:08;;;;;;;11.53;6.10;;;8.90;99.90;;;;;;5006417;28;20156;-70
2022/04/21 06:38:37;;;;;;;11.87;5.93;;;9.00;99.90;;;;;;5031563;28;20049;-71
2022/04/21 06:41:02;;;;;;;14.30;5.93;;;9.10;99.90;;;;;;5027340;28;20057;-70
2022/04/21 06:48:57;;;;;;;8.77;5.18;;;9.30;99.90;;;;;;5018253;28;20439;-71
2022/04/21 06:51:24;;;;;;;9.98;5.00;;;9.40;99.90;;;;;;5028027;28;20212;-70
2022/04/21 06:53:50;;;;;;;10.00;5.40;;;9.40;99.90;;;;;;5025803;28;20144;-70
2022/04/21 06:56:16;;;;;;;11.30;5.47;;;9.50;99.90;;;;;;5030775;28;20072;-68
2022/04/21 06:58:41;;;;;;;9.18;5.28;;;9.60;99.90;;;;;;5006774;28;20060;-69
2022/04/21 07:01:07;;;;;;;7.43;4.93;;;9.70;99.90;;;;;;5029327;28;20033;-69
2022/04/21 07:03:35;;;;;;;11.23;5.27;;;9.70;99.90;;;;;;5025546;28;20084;-69
2022/04/21 07:06:01;;;;;;;7.28;4.63;;;9.80;99.90;;;;;;5019482;28;20041;-70
2022/04/21 07:08:26;;;;;;;8.90;4.50;;;9.90;99.90;;;;;;5020624;28;20039;-70
2022/04/21 07:10:52;;;;;;;8.20;4.47;;;10.00;99.90;;;;;;5009855;28;20118;-70
2022/04/21 07:13:17;;;;;;;6.03;3.80;;;10.10;99.90;;;;;;5029905;28;20229;-70
2022/04/21 07:15:43;;;;;;;6.93;3.87;;;10.20;99.90;;;;;;5017045;28;20034;-70
2022/04/21 07:18:10;;;;;;;7.07;3.67;;;10.30;99.90;;;;;;5045642;22;20064;-66
2022/04/21 07:20:35;;;;;;;6.60;3.90;;;10.40;99.90;;;;;;5039180;28;20029;-66
2022/04/21 07:23:01;;;;;;;6.43;3.60;;;10.50;99.90;;;;;;5040684;28;20040;-66
2022/04/21 07:25:28;;;;;;;8.02;4.00;;;10.60;99.90;;;;;;5028086;28;20535;-66
2022/04/21 07:27:54;;;;;;;;;;;10.70;99.90;;;;;;5035392;28;20273;-66
2022/04/21 07:30:20;;;;;;;6.95;3.75;;;10.70;99.90;;;;;;5035538;28;19920;-66
2022/04/21 07:32:46;;;;;;;6.93;3.65;;;10.80;99.90;;;;;;5037989;28;20413;-66
2022/04/21 07:35:11;;;;;;;8.13;3.10;;;10.90;99.90;;;;;;5031944;28;20037;-66
2022/04/21 07:37:37;;;;;;;6.23;2.90;;;10.90;99.90;;;;;;5041294;28;20496;-66
2022/04/21 07:40:06;;;;;;;5.43;2.75;;;11.00;99.90;;;;;;5034236;28;20089;-66
2022/04/21 07:42:32;;;;;;;4.13;2.53;;;11.10;99.90;;;;;;5035753;28;20034;-66
2022/04/21 07:45:01;;;;;;;5.03;2.50;;;11.20;99.90;;;;;;5020760;28;20040;-66
2022/04/21 07:47:27;;;;;;;4.97;2.63;;;11.30;99.90;;;;;;5031580;28;20041;-66
2022/04/21 07:49:53;;;;;;;5.60;2.58;;;11.40;99.30;;;;;;5041560;28;20040;-67
2022/04/21 07:55:08;;;;;;;5.20;2.67;;;11.60;98.40;;;;;;5028183;28;20493;-69
2022/04/21 07:57:34;;;;;;;4.18;2.45;;;11.70;97.60;;;;;;5021558;28;20091;-69
2022/04/21 08:00:00;;;;;;;3.67;2.28;;;11.80;97.30;;;;;;5035745;28;20029;-69
2022/04/21 08:02:26;;;;;;;3.53;1.93;;;11.80;96.90;;;;;;5042899;28;20643;-69
2022/04/21 08:04:51;;;;;;;4.63;2.43;;;11.90;96.60;;;;;;5028904;28;20049;-69
2022/04/21 08:07:17;;;;;;;3.50;1.80;;;12.00;95.30;;;;;;5045839;28;20117;-69
2022/04/21 08:09:43;;;;;;;4.37;1.97;;;12.10;95.30;;;;;;5038084;28;20465;-67
2022/04/21 08:12:09;;;;;;;10.18;3.30;;;12.10;94.60;;;;;;5040376;28;20052;-68
2022/04/21 08:14:35;;;;;;;4.85;2.30;;;12.20;94.00;;;;;;5035112;28;20426;-67
2022/04/21 08:17:01;;;;;;;;;;;12.30;94.10;;;;;;5030984;28;20048;-67
2022/04/21 08:19:27;;;;;;;3.50;1.77;;;12.40;92.20;;;;;;5035687;28;19917;-67
2022/04/21 08:21:52;;;;;;;3.57;1.43;;;12.50;93.00;;;;;;5035587;28;20094;-67
2022/04/21 08:32:36;;;;;;;4.10;1.60;;;12.90;83.40;;;;;;5038425;28;20513;-67
2022/04/21 08:35:03;;;;;;;3.80;1.85;;;13.00;80.80;;;;;;5039246;28;20045;-67
2022/04/21 08:37:29;;;;;;;3.13;1.42;;;13.10;79.90;;;;;;5040298;28;20037;-67
2022/04/21 08:39:55;;;;;;;3.38;1.50;;;13.20;77.70;;;;;;5031547;28;20041;-66
2022/04/21 08:42:23;;;;;;;3.75;1.75;;;13.30;79.00;;;;;;5033087;28;20033;-67
2022/04/21 08:44:49;;;;;;;3.42;1.58;;;13.40;76.10;;;;;;5005432;28;20044;-67
2022/04/21 08:47:19;;;;;;;3.67;1.50;;;13.50;75.70;;;;;;5010325;28;20418;-67
2022/04/21 08:49:52;;;;;;;2.85;1.63;;;13.60;74.40;;;;;;5014722;28;20049;-67
2022/04/21 08:52:19;;;;;;;3.22;1.70;;;13.70;73.20;;;;;;5043083;28;20076;-67
2022/04/21 08:54:46;;;;;;;2.95;1.50;;;13.80;72.80;;;;;;5030863;28;20029;-67
2022/04/21 08:57:12;;;;;;;4.72;1.63;;;13.90;70.70;;;;;;5033413;28;20460;-67
2022/04/21 08:59:38;;;;;;;4.00;1.70;;;13.90;69.50;;;;;;5039071;28;20032;-67
2022/04/21 09:02:04;;;;;;;3.25;1.40;;;14.10;68.50;;;;;;5037177;28;20561;-67
2022/04/21 09:04:30;;;;;;;3.60;1.87;;;14.10;67.90;;;;;;5040527;28;20044;-67
2022/04/21 09:06:57;;;;;;;3.00;1.58;;;14.10;66.30;;;;;;5019650;28;20071;-67
2022/04/21 09:09:23;;;;;;;4.70;1.40;;;14.30;65.50;;;;;;5023476;28;20048;-67
2022/04/21 09:11:53;;;;;;;3.00;1.42;;;14.30;66.40;;;;;;5021209;28;20508;-67
2022/04/21 09:14:20;;;;;;;3.42;1.60;;;14.40;65.70;;;;;;5042600;28;20037;-67
2022/04/21 09:16:47;;;;;;;2.33;1.40;;;14.50;66.50;;;;;;5042984;28;20155;-67
2022/04/21 09:19:16;;;;;;;4.40;1.52;;;14.60;66.60;;;;;;5038048;28;20063;-67
2022/04/21 09:21:42;;;;;;;3.45;1.50;;;14.70;66.50;;;;;;5035952;28;20045;-67
2022/04/21 09:24:24;;;;;;;3.88;1.90;;;14.90;66.40;;;;;;5016750;28;20040;-67
2022/04/21 09:26:51;;;;;;;3.75;1.70;;;15.00;66.40;;;;;;5040218;28;20029;-68
2022/04/21 09:29:29;;;;;;;4.53;2.00;;;15.10;65.60;;;;;;5033491;28;20033;-67
2022/04/21 09:32:02;;;;;;;5.15;2.00;;;15.20;63.70;;;;;;5030440;28;20098;-67
2022/04/21 09:34:29;;;;;;;4.18;1.83;;;15.40;64.10;;;;;;5035176;28;20052;-67
2022/04/21 09:36:58;;;;;;;;;;;15.40;63.30;;;;;;5036162;28;20040;-67
2022/04/21 09:39:24;;;;;;;5.38;1.83;;;15.50;61.10;;;;;;5024107;28;19964;-67
2022/04/21 09:41:54;;;;;;;5.47;2.20;;;15.60;62.70;;;;;;5018010;28;20124;-67
2022/04/21 09:47:07;;;;;;;4.80;1.92;;;15.70;62.80;;;;;;5024200;28;20556;-67
2022/04/21 09:49:37;;;;;;;6.25;2.20;;;15.80;62.40;;;;;;5034628;28;20048;-67
2022/04/21 09:52:03;;;;;;;5.32;1.77;;;15.90;62.50;;;;;;5007647;28;20037;-67
2022/04/21 09:54:29;;;;;;;4.43;1.85;;;15.90;61.20;;;;;;5035531;28;20045;-67
2022/04/21 09:56:56;;;;;;;4.93;2.28;;;16.00;61.20;;;;;;5019078;28;20045;-67
2022/04/21 09:59:22;;;;;;;4.93;2.17;;;16.00;61.30;;;;;;5022549;28;20044;-67
2022/04/21 10:01:50;;;;;;;4.60;2.42;;;16.10;61.50;;;;;;5026485;28;20191;-67
2022/04/21 10:04:18;;;;;;;6.22;2.22;;;16.20;61.20;;;;;;5048048;28;20136;-67
2022/04/21 10:06:44;;;;;;;4.90;2.10;;;16.30;61.00;;;;;;5005493;28;20033;-67
2022/04/21 10:09:11;;;;;;;5.03;1.90;;;16.40;60.80;;;;;;5025363;28;20073;-67
2022/04/21 10:11:38;;;;;;;4.32;1.90;;;16.40;59.40;;;;;;5041686;28;20228;-67
2022/04/21 10:14:11;;;;;;;3.22;1.75;;;16.40;59.10;;;;;;5022362;28;20041;-67
2022/04/21 10:16:37;;;;;;;6.50;1.50;;;16.50;58.80;;;;;;5015740;28;20140;-67
2022/04/21 10:19:03;;;;;;;10.33;1.80;;;16.50;58.20;;;;;;5037649;28;20514;-67
2022/04/21 10:21:36;;;;;;;2.97;1.80;;;16.60;58.10;;;;;;5045135;28;20709;-67
2022/04/21 10:24:03;;;;;;;6.10;2.20;;;16.60;57.80;;;;;;5035944;28;20156;-67
2022/04/21 10:26:43;;;;;;;3.45;1.70;;;16.60;58.00;;;;;;5018079;28;20037;-67
2022/04/21 10:29:09;;;;;;;3.40;2.03;;;16.70;57.50;;;;;;5039705;28;20041;-67
2022/04/21 10:31:43;;;;;;;;;;;16.70;57.70;;;;;;5040955;28;20052;-67
2022/04/21 10:34:09;;;;;;;5.75;2.72;;;16.80;57.40;;;;;;5040383;28;19916;-67
2022/04/21 10:36:42;;;;;;;4.03;2.53;;;16.80;58.30;;;;;;5039597;28;20037;-67
2022/04/21 10:39:20;;;;;;;3.33;1.70;;;16.90;58.00;;;;;;5043915;28;20203;-67
2022/04/21 10:41:46;;;;;;;6.32;2.33;;;16.90;57.80;;;;;;5049941;28;20049;-67
2022/04/21 10:44:13;;;;;;;3.65;2.38;;;16.90;57.40;;;;;;5030651;28;20068;-67
2022/04/21 10:46:39;;;;;;;5.03;2.47;;;16.90;57.80;;;;;;5019173;28;20037;-67
2022/04/21 10:49:05;;;;;;;6.32;2.90;;;16.90;58.80;;;;;;5036587;28;20052;-68
2022/04/21 10:57:28;;;;;;;5.47;2.45;;;16.80;57.70;;;;;;5034020;28;20037;-67
2022/04/21 11:00:00;;;;;;;4.68;2.33;;;16.90;57.90;;;;;;5040943;28;20047;-67
2022/04/21 11:02:45;;;;;;;5.45;2.53;;;16.90;57.10;;;;;;5026647;28;20053;-67
2022/04/21 11:05:26;;;;;;;3.88;2.28;;;16.90;56.90;;;;;;5026391;28;20067;-68
2022/04/21 11:07:53;;;;;;;4.18;2.08;;;16.90;57.70;;;;;;5043378;28;20056;-67
2022/04/21 11:10:42;;;;;;;4.03;2.50;;;17.00;57.40;;;;;;5041354;28;20037;-67
2022/04/21 11:13:17;;;;;;;4.70;2.70;;;17.10;57.10;;;;;;5039413;28;20056;-67
2022/04/21 11:15:53;;;;;;;3.25;2.00;;;17.20;57.40;;;;;;5033678;28;20393;-67
2022/04/21 11:18:27;;;;;;;4.10;2.33;;;17.30;57.60;;;;;;5011419;28;20049;-67
2022/04/21 11:21:26;;;;;;;3.63;2.30;;;17.40;56.20;;;;;;5039126;28;20044;-67
2022/04/21 11:23:52;;;;;;;4.45;2.45;;;17.40;56.20;;;;;;5032173;28;20037;-67
2022/04/21 11:26:24;;;;;;;5.10;2.03;;;17.50;55.70;;;;;;5027927;28;20044;-67
2022/04/21 11:28:50;;;;;;;4.03;2.22;;;17.50;55.60;;;;;;5019525;28;20962;-67
2022/04/21 11:31:20;;;;;;;3.45;2.60;;;17.60;55.50;;;;;;5039150;28;20051;-67
2022/04/21 11:33:45;;;;;;;5.15;2.17;;;17.60;55.30;;;;;;5036920;28;20425;-67
2022/04/21 11:36:15;;;;;;;3.13;1.98;;;17.60;55.80;;;;;;5022932;28;20047;-67
2022/04/21 11:38:46;;;;;;;4.97;2.13;;;17.70;56.00;;;;;;5040084;28;20041;-68
2022/04/21 11:41:13;;;;;;;3.63;2.05;;;17.90;55.70;;;;;;5037653;28;20079;-67
2022/04/21 11:43:46;;;;;;;3.65;1.73;;;18.00;55.10;;;;;;5034694;28;20497;-67
2022/04/21 11:46:12;;;;;;;4.35;1.77;;;18.10;54.80;;;;;;5035468;28;20132;-67
2022/04/21 11:48:40;;;;;;;3.75;2.00;;;18.20;54.20;;;;;;5021124;28;20045;-67
2022/04/21 11:51:10;;;;;;;3.78;1.90;;;18.20;53.50;;;;;;5039507;28;20036;-67
2022/04/21 11:53:40;;;;;;;5.03;2.33;;;18.30;53.50;;;;;;5040094;28;20037;-67
2022/04/21 11:56:07;;;;;;;3.03;2.00;;;18.40;52.30;;;;;;5030979;28;20064;-67
2022/04/21 11:58:41;;;;;;;3.97;1.88;;;18.40;52.70;;;;;;5002966;28;20865;-67
2022/04/21 12:06:53;;;;;;;3.63;1.70;;;18.30;52.00;;;;;;5039736;28;20088;-67
2022/04/21 12:09:21;;;;;;;4.63;2.17;;;18.40;52.70;;;;;;5012673;28;20041;-67
2022/04/21 12:11:49;;;;;;;2.33;1.73;;;18.50;52.90;;;;;;5041272;28;20084;-67
2022/04/21 12:14:16;;;;;;;5.50;1.77;;;18.50;52.30;;;;;;5037615;28;20075;-67
2022/04/21 12:16:49;;;;;;;3.03;1.80;;;18.50;51.70;;;;;;5027246;28;20045;-67
2022/04/21 12:19:32;;;;;;;5.20;1.85;;;18.50;51.70;;;;;;5033629;28;20037;-68
2022/04/21 12:22:11;;;;;;;2.58;1.80;;;18.50;51.50;;;;;;5021655;28;20074;-67
2022/04/21 12:24:57;;;;;;;2.63;1.52;;;18.50;51.80;;;;;;5012465;28;20103;-67
2022/04/21 12:27:34;;;;;;;2.55;1.70;;;18.60;51.80;;;;;;5024163;28;20882;-67
2022/04/21 12:30:01;;;;;;;2.85;1.75;;;18.60;51.80;;;;;;5014427;28;20123;-67
2022/04/21 12:32:32;;;;;;;2.78;1.58;;;18.70;50.70;;;;;;5035649;28;20449;-67
2022/04/21 12:34:59;;;;;;;8.77;1.98;;;18.70;50.70;;;;;;5035636;28;20057;-67
2022/04/21 12:37:36;;;;;;;3.92;2.00;;;18.70;51.30;;;;;;5039414;28;20041;-67
2022/04/21 12:40:13;;;;;;;4.03;1.88;;;18.70;51.80;;;;;;5027352;28;20235;-67
2022/04/21 12:42:43;;;;;;;4.25;2.38;;;18.70;51.90;;;;;;5041941;28;20033;-67
2022/04/21 12:45:10;;;;;;;4.90;2.42;;;18.80;52.50;;;;;;5036205;28;20449;-67
2022/04/21 12:47:45;;;;;;;4.25;2.33;;;19.00;52.20;;;;;;5038557;28;20041;-67
2022/04/21 12:50:18;;;;;;;4.63;2.38;;;19.00;52.20;;;;;;5039962;28;20486;-67
2022/04/21 12:52:49;;;;;;;4.38;2.50;;;18.90;52.10;;;;;;5020510;28;20504;-67
2022/04/21 12:55:23;;;;;;;6.00;2.70;;;18.80;52.70;;;;;;5025573;28;20116;-67
2022/04/21 12:58:03;;;;;;;3.70;2.47;;;18.60;52.40;;;;;;5037353;28;20033;-67
2022/04/21 13:00:29;;;;;;;4.25;2.67;;;18.50;52.80;;;;;;5036595;28;20068;-67
2022/04/21 13:02:55;;;;;;;5.30;2.58;;;18.40;53.60;;;;;;5041787;28;20045;-67
2022/04/21 13:05:20;;;;;;;4.20;2.72;;;18.40;54.00;;;;;;5041593;28;20036;-67
2022/04/21 13:07:46;;;;;;;5.45;2.65;;;18.40;54.10;;;;;;5041780;28;20037;-67
2022/04/21 13:10:12;;;;;;;5.72;2.38;;;18.50;54.20;;;;;;5040792;28;20504;-67
2022/04/21 13:12:37;;;;;;;5.47;2.97;;;18.60;54.20;;;;;;5034973;28;20063;-67
2022/04/21 13:15:07;;;;;;;4.03;2.80;;;18.80;54.10;;;;;;5039475;28;20041;-67
2022/04/21 13:17:32;;;;;;;4.13;2.17;;;18.90;53.80;;;;;;5029878;22;20036;-67
2022/04/21 13:19:58;;;;;;;4.68;2.72;;;19.10;53.30;;;;;;5042302;28;20511;-67
2022/04/21 13:22:23;;;;;;;4.18;2.50;;;19.10;52.80;;;;;;5035024;28;20047;-66
2022/04/21 13:24:49;;;;;;;6.57;3.25;;;19.10;52.50;;;;;;5027848;28;20041;-67
2022/04/21 13:27:21;;;;;;;5.78;2.72;;;19.10;52.50;;;;;;5044946;28;20047;-66
2022/04/21 13:29:47;;;;;;;4.53;2.38;;;19.10;52.40;;;;;;5053261;28;20107;-67
2022/04/21 13:34:57;;;;;;;3.65;2.47;;;18.90;52.30;;;;;;5049284;28;20507;-67
2022/04/21 13:37:23;;;;;;;3.92;2.47;;;18.70;52.70;;;;;;5042718;28;20041;-67
2022/04/21 13:39:48;;;;;;;4.80;2.65;;;18.70;53.20;;;;;;5052238;28;20497;-67
2022/04/21 13:42:14;;;;;;;6.05;2.38;;;18.60;54.00;;;;;;5044898;28;20041;-67
2022/04/21 13:44:40;;;;;;;4.85;3.03;;;18.50;54.10;;;;;;5042042;28;20140;-67
2022/04/21 13:47:06;;;;;;;4.65;2.88;;;18.40;54.00;;;;;;5044508;28;20405;-67
2022/04/21 13:49:32;;;;;;;5.40;2.90;;;18.40;54.10;;;;;;5024814;28;20103;-68